Terminal Aerodrome Forecast
Issued by NWS Paducah, KY

Home | Current Version | Previous Version | Text Only | Print | Product List | Glossary On
Versions: 1 2 3 4 5 6 7 8 9 10 11 12 13 14 15 16 17 18 19 20 21 22 23
000
FTUS43 KPAH 181721
TAFEVV
TAF
KEVV 181721Z 1818/1918 VRB07KT 1SM +TSRA BR BKN006CB
      TEMPO 1818/1819 3SM SHRA BR BKN020
     FM181900 13005KT P6SM VCSH SCT050 BKN120
     FM182200 12004KT P6SM BKN080
      TEMPO 1822/1902 5SM SHRA BR BKN035
     FM190900 00000KT 5SM BR BKN120
     FM191400 24004KT P6SM SCT090=

USA.gov is the U.S. government's official web portal to all federal, state and local government web resources and services.